sensor_id;sensor_type;location;lat;lon;timestamp;P1;durP1;ratioP1;P2;durP2;ratioP2
10403;SDS011;5248;47.374;8.486;2022-09-01T00:01:04;11.85;;;10.65;;
10403;SDS011;5248;47.374;8.486;2022-09-01T00:03:33;11.40;;;10.45;;
10403;SDS011;5248;47.374;8.486;2022-09-01T00:06:00;10.60;;;9.70;;
10403;SDS011;5248;47.374;8.486;2022-09-01T00:08:28;11.75;;;10.55;;
10403;SDS011;5248;47.374;8.486;2022-09-01T00:10:55;11.17;;;10.03;;
10403;SDS011;5248;47.374;8.486;2022-09-01T00:13:22;12.23;;;9.73;;
10403;SDS011;5248;47.374;8.486;2022-09-01T00:15:48;11.55;;;10.48;;
10403;SDS011;5248;47.374;8.486;2022-09-01T00:18:16;9.88;;;9.07;;
10403;SDS011;5248;47.374;8.486;2022-09-01T00:20:43;11.30;;;10.23;;
10403;SDS011;5248;47.374;8.486;2022-09-01T00:23:10;11.60;;;10.60;;
10403;SDS011;5248;47.374;8.486;2022-09-01T00:25:36;11.60;;;10.60;;
10403;SDS011;5248;47.374;8.486;2022-09-01T00:28:03;10.47;;;9.67;;
10403;SDS011;5248;47.374;8.486;2022-09-01T00:30:30;10.73;;;9.80;;
10403;SDS011;5248;47.374;8.486;2022-09-01T00:32:57;10.67;;;9.73;;
10403;SDS011;5248;47.374;8.486;2022-09-01T00:35:26;10.87;;;9.87;;
10403;SDS011;5248;47.374;8.486;2022-09-01T00:37:53;13.93;;;10.50;;
10403;SDS011;5248;47.374;8.486;2022-09-01T00:40:20;11.27;;;10.00;;
10403;SDS011;5248;47.374;8.486;2022-09-01T00:42:46;12.20;;;11.03;;
10403;SDS011;5248;47.374;8.486;2022-09-01T00:45:14;11.25;;;10.35;;
10403;SDS011;5248;47.374;8.486;2022-09-01T00:47:43;11.60;;;10.50;;
10403;SDS011;5248;47.374;8.486;2022-09-01T00:50:10;10.70;;;9.73;;
10403;SDS011;5248;47.374;8.486;2022-09-01T00:52:42;11.10;;;10.20;;
10403;SDS011;5248;47.374;8.486;2022-09-01T00:55:12;10.90;;;10.03;;
10403;SDS011;5248;47.374;8.486;2022-09-01T00:57:42;10.83;;;9.90;;
10403;SDS011;5248;47.374;8.486;2022-09-01T01:00:11;11.00;;;9.95;;
10403;SDS011;5248;47.374;8.486;2022-09-01T01:02:39;11.60;;;10.60;;
10403;SDS011;5248;47.374;8.486;2022-09-01T01:05:07;10.77;;;9.98;;
10403;SDS011;5248;47.374;8.486;2022-09-01T01:07:34;13.50;;;10.70;;
10403;SDS011;5248;47.374;8.486;2022-09-01T01:10:05;10.83;;;9.77;;
10403;SDS011;5248;47.374;8.486;2022-09-01T01:12:32;10.97;;;10.07;;
10403;SDS011;5248;47.374;8.486;2022-09-01T01:15:02;11.00;;;10.10;;
10403;SDS011;5248;47.374;8.486;2022-09-01T01:17:31;10.93;;;9.93;;
10403;SDS011;5248;47.374;8.486;2022-09-01T01:19:57;10.73;;;9.73;;
10403;SDS011;5248;47.374;8.486;2022-09-01T01:22:48;11.60;;;10.48;;
10403;SDS011;5248;47.374;8.486;2022-09-01T01:25:31;11.17;;;10.17;;
10403;SDS011;5248;47.374;8.486;2022-09-01T01:28:07;11.03;;;9.93;;
10403;SDS011;5248;47.374;8.486;2022-09-01T01:30:36;11.87;;;10.77;;
10403;SDS011;5248;47.374;8.486;2022-09-01T01:33:05;11.27;;;10.17;;
10403;SDS011;5248;47.374;8.486;2022-09-01T01:35:32;11.83;;;10.73;;
10403;SDS011;5248;47.374;8.486;2022-09-01T01:38:00;11.23;;;10.13;;
10403;SDS011;5248;47.374;8.486;2022-09-01T01:40:33;11.47;;;9.93;;
10403;SDS011;5248;47.374;8.486;2022-09-01T01:43:00;10.43;;;9.53;;
10403;SDS011;5248;47.374;8.486;2022-09-01T01:45:28;11.03;;;9.93;;
10403;SDS011;5248;47.374;8.486;2022-09-01T01:47:55;11.77;;;10.40;;
10403;SDS011;5248;47.374;8.486;2022-09-01T01:50:22;11.17;;;10.07;;
10403;SDS011;5248;47.374;8.486;2022-09-01T01:52:50;11.67;;;10.43;;
10403;SDS011;5248;47.374;8.486;2022-09-01T01:55:16;11.23;;;10.23;;
10403;SDS011;5248;47.374;8.486;2022-09-01T01:57:45;11.00;;;10.10;;
10403;SDS011;5248;47.374;8.486;2022-09-01T02:00:14;11.10;;;10.10;;
10403;SDS011;5248;47.374;8.486;2022-09-01T02:02:43;10.90;;;9.80;;
10403;SDS011;5248;47.374;8.486;2022-09-01T02:05:12;11.03;;;10.13;;
10403;SDS011;5248;47.374;8.486;2022-09-01T02:07:46;11.43;;;10.33;;
10403;SDS011;5248;47.374;8.486;2022-09-01T02:10:12;12.17;;;10.43;;
10403;SDS011;5248;47.374;8.486;2022-09-01T02:12:39;11.53;;;10.53;;
10403;SDS011;5248;47.374;8.486;2022-09-01T02:15:08;11.43;;;10.53;;
10403;SDS011;5248;47.374;8.486;2022-09-01T02:17:36;11.93;;;10.82;;
10403;SDS011;5248;47.374;8.486;2022-09-01T02:20:04;11.23;;;10.23;;
10403;SDS011;5248;47.374;8.486;2022-09-01T02:22:31;11.57;;;10.43;;
10403;SDS011;5248;47.374;8.486;2022-09-01T02:24:58;12.13;;;10.93;;
10403;SDS011;5248;47.374;8.486;2022-09-01T02:27:25;13.77;;;10.17;;
10403;SDS011;5248;47.374;8.486;2022-09-01T02:29:53;12.48;;;11.27;;
10403;SDS011;5248;47.374;8.486;2022-09-01T02:32:24;12.63;;;11.33;;
10403;SDS011;5248;47.374;8.486;2022-09-01T02:34:50;12.83;;;11.60;;
10403;SDS011;5248;47.374;8.486;2022-09-01T02:37:25;13.70;;;12.23;;
10403;SDS011;5248;47.374;8.486;2022-09-01T02:39:52;12.23;;;11.17;;
10403;SDS011;5248;47.374;8.486;2022-09-01T02:42:20;11.80;;;10.67;;
10403;SDS011;5248;47.374;8.486;2022-09-01T02:44:51;15.40;;;13.80;;
10403;SDS011;5248;47.374;8.486;2022-09-01T02:47:24;14.83;;;13.50;;
10403;SDS011;5248;47.374;8.486;2022-09-01T02:49:52;15.33;;;13.57;;
10403;SDS011;5248;47.374;8.486;2022-09-01T02:52:19;23.23;;;20.93;;
10403;SDS011;5248;47.374;8.486;2022-09-01T02:54:46;14.47;;;13.17;;
10403;SDS011;5248;47.374;8.486;2022-09-01T02:57:13;12.93;;;11.83;;
10403;SDS011;5248;47.374;8.486;2022-09-01T02:59:40;13.27;;;11.67;;
10403;SDS011;5248;47.374;8.486;2022-09-01T03:02:08;13.13;;;11.80;;
10403;SDS011;5248;47.374;8.486;2022-09-01T03:04:36;13.37;;;12.07;;
10403;SDS011;5248;47.374;8.486;2022-09-01T03:07:03;13.17;;;11.77;;
10403;SDS011;5248;47.374;8.486;2022-09-01T03:09:32;13.00;;;11.73;;
10403;SDS011;5248;47.374;8.486;2022-09-01T03:11:59;13.55;;;12.32;;
10403;SDS011;5248;47.374;8.486;2022-09-01T03:14:26;13.07;;;11.70;;
10403;SDS011;5248;47.374;8.486;2022-09-01T03:16:54;13.48;;;12.27;;
10403;SDS011;5248;47.374;8.486;2022-09-01T03:19:21;14.73;;;13.43;;
10403;SDS011;5248;47.374;8.486;2022-09-01T03:21:49;13.63;;;12.27;;
10403;SDS011;5248;47.374;8.486;2022-09-01T03:24:16;14.97;;;13.47;;
10403;SDS011;5248;47.374;8.486;2022-09-01T03:26:44;15.37;;;13.97;;
10403;SDS011;5248;47.374;8.486;2022-09-01T03:29:11;14.10;;;12.65;;
10403;SDS011;5248;47.374;8.486;2022-09-01T03:31:39;14.63;;;13.07;;
10403;SDS011;5248;47.374;8.486;2022-09-01T03:34:07;15.20;;;13.57;;
10403;SDS011;5248;47.374;8.486;2022-09-01T03:36:35;13.83;;;12.53;;
10403;SDS011;5248;47.374;8.486;2022-09-01T03:39:03;14.83;;;13.47;;
10403;SDS011;5248;47.374;8.486;2022-09-01T03:41:31;14.53;;;13.20;;
10403;SDS011;5248;47.374;8.486;2022-09-01T03:44:02;14.50;;;13.10;;
10403;SDS011;5248;47.374;8.486;2022-09-01T03:46:30;15.43;;;13.87;;
10403;SDS011;5248;47.374;8.486;2022-09-01T03:48:58;15.53;;;13.83;;
10403;SDS011;5248;47.374;8.486;2022-09-01T03:51:26;15.27;;;13.87;;
10403;SDS011;5248;47.374;8.486;2022-09-01T03:53:55;15.03;;;13.63;;
10403;SDS011;5248;47.374;8.486;2022-09-01T03:56:25;14.73;;;13.33;;
10403;SDS011;5248;47.374;8.486;2022-09-01T03:58:53;15.13;;;13.60;;
10403;SDS011;5248;47.374;8.486;2022-09-01T04:01:21;15.93;;;14.57;;
10403;SDS011;5248;47.374;8.486;2022-09-01T04:03:49;14.60;;;13.30;;
10403;SDS011;5248;47.374;8.486;2022-09-01T04:06:17;14.80;;;13.50;;
10403;SDS011;5248;47.374;8.486;2022-09-01T04:08:48;13.97;;;12.77;;
10403;SDS011;5248;47.374;8.486;2022-09-01T04:11:27;15.53;;;14.13;;
10403;SDS011;5248;47.374;8.486;2022-09-01T04:13:55;13.93;;;12.83;;
10403;SDS011;5248;47.374;8.486;2022-09-01T04:16:22;14.80;;;13.53;;
10403;SDS011;5248;47.374;8.486;2022-09-01T04:19:08;15.40;;;14.10;;
10403;SDS011;5248;47.374;8.486;2022-09-01T04:21:44;14.20;;;12.90;;
10403;SDS011;5248;47.374;8.486;2022-09-01T04:24:10;13.45;;;12.35;;
10403;SDS011;5248;47.374;8.486;2022-09-01T04:26:41;11.75;;;10.75;;
10403;SDS011;5248;47.374;8.486;2022-09-01T04:29:10;13.73;;;12.52;;
10403;SDS011;5248;47.374;8.486;2022-09-01T04:31:36;14.77;;;13.43;;
10403;SDS011;5248;47.374;8.486;2022-09-01T04:34:04;13.00;;;11.82;;
10403;SDS011;5248;47.374;8.486;2022-09-01T04:36:38;11.55;;;10.45;;
10403;SDS011;5248;47.374;8.486;2022-09-01T04:39:06;13.80;;;12.70;;
10403;SDS011;5248;47.374;8.486;2022-09-01T04:41:35;12.82;;;11.80;;
10403;SDS011;5248;47.374;8.486;2022-09-01T04:44:06;11.95;;;10.95;;
10403;SDS011;5248;47.374;8.486;2022-09-01T04:46:36;12.73;;;11.52;;
10403;SDS011;5248;47.374;8.486;2022-09-01T04:49:06;13.45;;;12.35;;
10403;SDS011;5248;47.374;8.486;2022-09-01T04:51:34;11.55;;;10.65;;
10403;SDS011;5248;47.374;8.486;2022-09-01T04:54:00;11.80;;;10.80;;
10403;SDS011;5248;47.374;8.486;2022-09-01T04:56:27;12.45;;;11.45;;
10403;SDS011;5248;47.374;8.486;2022-09-01T04:59:00;12.10;;;11.10;;
10403;SDS011;5248;47.374;8.486;2022-09-01T05:01:32;12.43;;;11.43;;
10403;SDS011;5248;47.374;8.486;2022-09-01T05:04:07;11.87;;;10.77;;
10403;SDS011;5248;47.374;8.486;2022-09-01T05:06:35;12.52;;;11.40;;
10403;SDS011;5248;47.374;8.486;2022-09-01T05:09:04;12.80;;;11.65;;
10403;SDS011;5248;47.374;8.486;2022-09-01T05:11:32;13.10;;;12.00;;
10403;SDS011;5248;47.374;8.486;2022-09-01T05:14:01;11.75;;;10.70;;
10403;SDS011;5248;47.374;8.486;2022-09-01T05:16:31;11.95;;;10.75;;
10403;SDS011;5248;47.374;8.486;2022-09-01T05:19:00;10.82;;;9.82;;
10403;SDS011;5248;47.374;8.486;2022-09-01T05:21:27;11.07;;;10.07;;
10403;SDS011;5248;47.374;8.486;2022-09-01T05:23:54;11.05;;;10.15;;
10403;SDS011;5248;47.374;8.486;2022-09-01T05:26:22;10.88;;;10.02;;
10403;SDS011;5248;47.374;8.486;2022-09-01T05:28:51;12.38;;;11.25;;
10403;SDS011;5248;47.374;8.486;2022-09-01T05:31:19;12.38;;;11.27;;
10403;SDS011;5248;47.374;8.486;2022-09-01T05:33:47;12.15;;;10.95;;
10403;SDS011;5248;47.374;8.486;2022-09-01T05:36:15;12.95;;;11.65;;
10403;SDS011;5248;47.374;8.486;2022-09-01T05:38:44;10.98;;;9.88;;
10403;SDS011;5248;47.374;8.486;2022-09-01T05:41:12;11.93;;;10.75;;
10403;SDS011;5248;47.374;8.486;2022-09-01T05:43:40;12.35;;;10.32;;
10403;SDS011;5248;47.374;8.486;2022-09-01T05:46:10;11.30;;;10.40;;
10403;SDS011;5248;47.374;8.486;2022-09-01T05:48:41;12.40;;;11.35;;
10403;SDS011;5248;47.374;8.486;2022-09-01T05:51:09;11.88;;;10.88;;
10403;SDS011;5248;47.374;8.486;2022-09-01T05:53:40;13.00;;;11.90;;
10403;SDS011;5248;47.374;8.486;2022-09-01T05:56:08;12.27;;;11.20;;
10403;SDS011;5248;47.374;8.486;2022-09-01T05:58:37;13.27;;;12.15;;
10403;SDS011;5248;47.374;8.486;2022-09-01T06:01:04;14.02;;;12.68;;
10403;SDS011;5248;47.374;8.486;2022-09-01T06:03:31;11.60;;;10.68;;
10403;SDS011;5248;47.374;8.486;2022-09-01T06:06:00;11.50;;;10.35;;
10403;SDS011;5248;47.374;8.486;2022-09-01T06:08:30;11.77;;;10.75;;
10403;SDS011;5248;47.374;8.486;2022-09-01T06:10:56;10.57;;;9.50;;
10403;SDS011;5248;47.374;8.486;2022-09-01T06:13:23;12.88;;;11.68;;
10403;SDS011;5248;47.374;8.486;2022-09-01T06:15:50;11.80;;;10.80;;
10403;SDS011;5248;47.374;8.486;2022-09-01T06:18:18;11.05;;;9.98;;
10403;SDS011;5248;47.374;8.486;2022-09-01T06:20:45;10.13;;;9.27;;
10403;SDS011;5248;47.374;8.486;2022-09-01T06:23:14;11.55;;;10.45;;
10403;SDS011;5248;47.374;8.486;2022-09-01T06:25:43;10.73;;;9.82;;
10403;SDS011;5248;47.374;8.486;2022-09-01T06:28:11;11.30;;;10.20;;
10403;SDS011;5248;47.374;8.486;2022-09-01T06:30:38;10.90;;;9.77;;
10403;SDS011;5248;47.374;8.486;2022-09-01T06:33:06;11.80;;;10.80;;
10403;SDS011;5248;47.374;8.486;2022-09-01T06:35:35;11.63;;;10.60;;
10403;SDS011;5248;47.374;8.486;2022-09-01T06:38:02;10.88;;;9.93;;
10403;SDS011;5248;47.374;8.486;2022-09-01T06:40:30;10.50;;;9.65;;
10403;SDS011;5248;47.374;8.486;2022-09-01T06:42:59;11.95;;;10.80;;
10403;SDS011;5248;47.374;8.486;2022-09-01T06:45:26;10.68;;;9.70;;
10403;SDS011;5248;47.374;8.486;2022-09-01T06:47:53;11.10;;;10.10;;
10403;SDS011;5248;47.374;8.486;2022-09-01T06:50:21;10.65;;;9.73;;
10403;SDS011;5248;47.374;8.486;2022-09-01T06:52:48;9.40;;;8.60;;
10403;SDS011;5248;47.374;8.486;2022-09-01T06:55:25;11.55;;;10.32;;
10403;SDS011;5248;47.374;8.486;2022-09-01T06:57:59;10.85;;;9.93;;
10403;SDS011;5248;47.374;8.486;2022-09-01T07:00:29;11.10;;;10.10;;
10403;SDS011;5248;47.374;8.486;2022-09-01T07:02:56;10.50;;;9.50;;
10403;SDS011;5248;47.374;8.486;2022-09-01T07:05:23;11.65;;;10.55;;
10403;SDS011;5248;47.374;8.486;2022-09-01T07:07:51;11.65;;;10.57;;
10403;SDS011;5248;47.374;8.486;2022-09-01T07:10:20;12.18;;;11.10;;
10403;SDS011;5248;47.374;8.486;2022-09-01T07:12:47;11.13;;;10.15;;
10403;SDS011;5248;47.374;8.486;2022-09-01T07:15:16;11.50;;;10.35;;
10403;SDS011;5248;47.374;8.486;2022-09-01T07:17:45;11.55;;;10.52;;
10403;SDS011;5248;47.374;8.486;2022-09-01T07:20:14;10.45;;;9.55;;
10403;SDS011;5248;47.374;8.486;2022-09-01T07:22:41;12.55;;;11.32;;
10403;SDS011;5248;47.374;8.486;2022-09-01T07:25:08;11.57;;;10.50;;
10403;SDS011;5248;47.374;8.486;2022-09-01T07:27:37;10.82;;;9.93;;
10403;SDS011;5248;47.374;8.486;2022-09-01T07:30:05;11.73;;;10.73;;
10403;SDS011;5248;47.374;8.486;2022-09-01T07:32:35;12.73;;;10.07;;
10403;SDS011;5248;47.374;8.486;2022-09-01T07:35:04;11.93;;;10.65;;
10403;SDS011;5248;47.374;8.486;2022-09-01T07:37:33;11.10;;;9.20;;
10403;SDS011;5248;47.374;8.486;2022-09-01T07:40:02;11.43;;;10.30;;
10403;SDS011;5248;47.374;8.486;2022-09-01T07:42:31;9.55;;;8.70;;
10403;SDS011;5248;47.374;8.486;2022-09-01T07:44:58;11.32;;;10.32;;
10403;SDS011;5248;47.374;8.486;2022-09-01T07:47:25;11.48;;;10.48;;
10403;SDS011;5248;47.374;8.486;2022-09-01T07:49:54;11.38;;;10.20;;
10403;SDS011;5248;47.374;8.486;2022-09-01T07:52:21;12.77;;;11.45;;
10403;SDS011;5248;47.374;8.486;2022-09-01T07:54:49;15.23;;;11.05;;
10403;SDS011;5248;47.374;8.486;2022-09-01T07:57:17;10.98;;;10.05;;
10403;SDS011;5248;47.374;8.486;2022-09-01T07:59:46;10.52;;;9.48;;
10403;SDS011;5248;47.374;8.486;2022-09-01T08:02:14;11.00;;;10.10;;
10403;SDS011;5248;47.374;8.486;2022-09-01T08:04:42;11.80;;;10.65;;
10403;SDS011;5248;47.374;8.486;2022-09-01T08:07:10;12.20;;;10.77;;
10403;SDS011;5248;47.374;8.486;2022-09-01T08:09:38;12.13;;;10.93;;
10403;SDS011;5248;47.374;8.486;2022-09-01T08:12:06;10.63;;;9.73;;
10403;SDS011;5248;47.374;8.486;2022-09-01T08:14:33;10.50;;;9.50;;
10403;SDS011;5248;47.374;8.486;2022-09-01T08:17:00;10.48;;;9.40;;
10403;SDS011;5248;47.374;8.486;2022-09-01T08:19:27;9.73;;;8.70;;
10403;SDS011;5248;47.374;8.486;2022-09-01T08:21:55;10.07;;;9.23;;
10403;SDS011;5248;47.374;8.486;2022-09-01T08:24:23;10.30;;;9.35;;
10403;SDS011;5248;47.374;8.486;2022-09-01T08:26:49;8.88;;;8.10;;
10403;SDS011;5248;47.374;8.486;2022-09-01T08:29:16;9.50;;;8.65;;
10403;SDS011;5248;47.374;8.486;2022-09-01T08:31:45;9.73;;;8.82;;
10403;SDS011;5248;47.374;8.486;2022-09-01T08:34:11;9.88;;;9.07;;
10403;SDS011;5248;47.374;8.486;2022-09-01T08:36:41;9.85;;;8.88;;
10403;SDS011;5248;47.374;8.486;2022-09-01T08:39:07;10.32;;;8.75;;
10403;SDS011;5248;47.374;8.486;2022-09-01T08:41:38;8.25;;;7.55;;
10403;SDS011;5248;47.374;8.486;2022-09-01T08:44:09;8.30;;;7.53;;
10403;SDS011;5248;47.374;8.486;2022-09-01T08:46:42;8.77;;;7.95;;
10403;SDS011;5248;47.374;8.486;2022-09-01T08:49:11;9.98;;;8.68;;
10403;SDS011;5248;47.374;8.486;2022-09-01T08:51:41;7.88;;;7.13;;
10403;SDS011;5248;47.374;8.486;2022-09-01T08:54:13;9.25;;;8.35;;
10403;SDS011;5248;47.374;8.486;2022-09-01T08:56:47;8.77;;;8.07;;
10403;SDS011;5248;47.374;8.486;2022-09-01T08:59:17;8.43;;;7.68;;
10403;SDS011;5248;47.374;8.486;2022-09-01T09:01:47;9.00;;;8.15;;
10403;SDS011;5248;47.374;8.486;2022-09-01T09:04:23;8.60;;;7.80;;
10403;SDS011;5248;47.374;8.486;2022-09-01T09:06:56;8.82;;;8.00;;
10403;SDS011;5248;47.374;8.486;2022-09-01T09:09:26;8.38;;;7.57;;
10403;SDS011;5248;47.374;8.486;2022-09-01T09:12:12;7.88;;;7.18;;
10403;SDS011;5248;47.374;8.486;2022-09-01T09:14:50;8.13;;;6.97;;
10403;SDS011;5248;47.374;8.486;2022-09-01T09:17:22;8.07;;;7.28;;
10403;SDS011;5248;47.374;8.486;2022-09-01T09:19:51;7.72;;;7.03;;
10403;SDS011;5248;47.374;8.486;2022-09-01T09:22:18;5.70;;;5.20;;
10403;SDS011;5248;47.374;8.486;2022-09-01T09:24:45;7.30;;;6.68;;
10403;SDS011;5248;47.374;8.486;2022-09-01T09:27:18;10.65;;;9.70;;
10403;SDS011;5248;47.374;8.486;2022-09-01T09:29:46;6.25;;;5.70;;
10403;SDS011;5248;47.374;8.486;2022-09-01T09:32:15;5.32;;;4.90;;
10403;SDS011;5248;47.374;8.486;2022-09-01T09:34:41;5.75;;;5.32;;
10403;SDS011;5248;47.374;8.486;2022-09-01T09:37:15;4.95;;;4.65;;
10403;SDS011;5248;47.374;8.486;2022-09-01T09:39:45;6.05;;;5.60;;
10403;SDS011;5248;47.374;8.486;2022-09-01T09:42:29;6.47;;;5.97;;
10403;SDS011;5248;47.374;8.486;2022-09-01T09:44:57;5.82;;;5.32;;
10403;SDS011;5248;47.374;8.486;2022-09-01T09:47:32;6.63;;;5.85;;
10403;SDS011;5248;47.374;8.486;2022-09-01T09:50:09;6.43;;;5.68;;
10403;SDS011;5248;47.374;8.486;2022-09-01T09:52:42;7.30;;;5.80;;
10403;SDS011;5248;47.374;8.486;2022-09-01T09:55:21;5.80;;;5.30;;
10403;SDS011;5248;47.374;8.486;2022-09-01T09:57:52;6.22;;;5.78;;
10403;SDS011;5248;47.374;8.486;2022-09-01T10:00:21;6.93;;;6.32;;
10403;SDS011;5248;47.374;8.486;2022-09-01T10:02:51;6.60;;;6.10;;
10403;SDS011;5248;47.374;8.486;2022-09-01T10:05:24;6.90;;;6.30;;
10403;SDS011;5248;47.374;8.486;2022-09-01T10:07:53;7.30;;;6.70;;
10403;SDS011;5248;47.374;8.486;2022-09-01T10:10:25;6.68;;;6.18;;
10403;SDS011;5248;47.374;8.486;2022-09-01T10:12:56;6.78;;;6.25;;
10403;SDS011;5248;47.374;8.486;2022-09-01T10:15:24;6.45;;;5.85;;
10403;SDS011;5248;47.374;8.486;2022-09-01T10:17:53;6.15;;;5.57;;
10403;SDS011;5248;47.374;8.486;2022-09-01T10:20:22;6.47;;;5.97;;
10403;SDS011;5248;47.374;8.486;2022-09-01T10:22:50;7.78;;;5.30;;
10403;SDS011;5248;47.374;8.486;2022-09-01T10:25:18;5.88;;;5.38;;
10403;SDS011;5248;47.374;8.486;2022-09-01T10:27:46;5.90;;;5.40;;
10403;SDS011;5248;47.374;8.486;2022-09-01T10:30:17;5.15;;;4.70;;
10403;SDS011;5248;47.374;8.486;2022-09-01T10:32:45;5.03;;;4.70;;
10403;SDS011;5248;47.374;8.486;2022-09-01T10:35:13;6.00;;;5.50;;
10403;SDS011;5248;47.374;8.486;2022-09-01T10:37:44;5.57;;;5.18;;
10403;SDS011;5248;47.374;8.486;2022-09-01T10:40:13;4.63;;;4.32;;
10403;SDS011;5248;47.374;8.486;2022-09-01T10:42:42;5.38;;;4.95;;
10403;SDS011;5248;47.374;8.486;2022-09-01T10:45:19;4.20;;;3.90;;
10403;SDS011;5248;47.374;8.486;2022-09-01T10:47:56;4.57;;;4.20;;
10403;SDS011;5248;47.374;8.486;2022-09-01T10:50:34;3.97;;;3.78;;
10403;SDS011;5248;47.374;8.486;2022-09-01T10:53:02;4.95;;;4.43;;
10403;SDS011;5248;47.374;8.486;2022-09-01T10:55:43;4.78;;;4.47;;
10403;SDS011;5248;47.374;8.486;2022-09-01T10:58:23;4.78;;;4.38;;
10403;SDS011;5248;47.374;8.486;2022-09-01T11:00:57;4.50;;;4.10;;
10403;SDS011;5248;47.374;8.486;2022-09-01T11:06:30;4.70;;;4.35;;
10403;SDS011;5248;47.374;8.486;2022-09-01T11:08:59;3.90;;;3.60;;
10403;SDS011;5248;47.374;8.486;2022-09-01T11:11:30;4.40;;;4.10;;
10403;SDS011;5248;47.374;8.486;2022-09-01T11:14:01;4.35;;;4.05;;
10403;SDS011;5248;47.374;8.486;2022-09-01T11:16:33;4.25;;;3.90;;
10403;SDS011;5248;47.374;8.486;2022-09-01T11:22:01;3.63;;;3.38;;
10403;SDS011;5248;47.374;8.486;2022-09-01T11:24:44;5.55;;;3.90;;
10403;SDS011;5248;47.374;8.486;2022-09-01T11:30:33;3.92;;;3.72;;
10403;SDS011;5248;47.374;8.486;2022-09-01T11:33:19;5.10;;;3.90;;
10403;SDS011;5248;47.374;8.486;2022-09-01T11:36:05;4.32;;;3.50;;
10403;SDS011;5248;47.374;8.486;2022-09-01T11:38:36;4.10;;;3.90;;
10403;SDS011;5248;47.374;8.486;2022-09-01T11:41:09;4.10;;;3.80;;
10403;SDS011;5248;47.374;8.486;2022-09-01T11:43:48;3.40;;;3.20;;
10403;SDS011;5248;47.374;8.486;2022-09-01T11:46:17;4.20;;;3.85;;
10403;SDS011;5248;47.374;8.486;2022-09-01T11:48:49;3.95;;;3.70;;
10403;SDS011;5248;47.374;8.486;2022-09-01T11:51:16;4.65;;;4.00;;
10403;SDS011;5248;47.374;8.486;2022-09-01T11:53:42;3.88;;;3.60;;
10403;SDS011;5248;47.374;8.486;2022-09-01T11:56:13;3.60;;;3.40;;
10403;SDS011;5248;47.374;8.486;2022-09-01T11:58:41;3.83;;;3.42;;
10403;SDS011;5248;47.374;8.486;2022-09-01T12:01:12;3.33;;;3.03;;
10403;SDS011;5248;47.374;8.486;2022-09-01T12:03:41;3.50;;;3.20;;
10403;SDS011;5248;47.374;8.486;2022-09-01T12:06:10;3.70;;;3.50;;
10403;SDS011;5248;47.374;8.486;2022-09-01T12:08:38;3.55;;;3.25;;
10403;SDS011;5248;47.374;8.486;2022-09-01T12:11:07;2.80;;;2.60;;
10403;SDS011;5248;47.374;8.486;2022-09-01T12:13:35;3.20;;;3.00;;
10403;SDS011;5248;47.374;8.486;2022-09-01T12:16:03;3.30;;;3.05;;
10403;SDS011;5248;47.374;8.486;2022-09-01T12:18:32;3.20;;;3.00;;
10403;SDS011;5248;47.374;8.486;2022-09-01T12:21:02;3.05;;;2.75;;
10403;SDS011;5248;47.374;8.486;2022-09-01T12:23:33;2.80;;;2.60;;
10403;SDS011;5248;47.374;8.486;2022-09-01T12:26:02;2.65;;;2.45;;
10403;SDS011;5248;47.374;8.486;2022-09-01T12:28:31;2.90;;;2.60;;
10403;SDS011;5248;47.374;8.486;2022-09-01T12:30:59;2.97;;;2.78;;
10403;SDS011;5248;47.374;8.486;2022-09-01T12:33:28;2.70;;;2.50;;
10403;SDS011;5248;47.374;8.486;2022-09-01T12:38:48;2.80;;;2.70;;
10403;SDS011;5248;47.374;8.486;2022-09-01T12:41:22;2.88;;;2.60;;
10403;SDS011;5248;47.374;8.486;2022-09-01T12:43:50;2.53;;;2.42;;
10403;SDS011;5248;47.374;8.486;2022-09-01T12:49:17;2.67;;;2.58;;
10403;SDS011;5248;47.374;8.486;2022-09-01T12:51:44;2.50;;;2.40;;
10403;SDS011;5248;47.374;8.486;2022-09-01T12:54:14;2.83;;;2.72;;
10403;SDS011;5248;47.374;8.486;2022-09-01T12:56:43;2.65;;;2.45;;
10403;SDS011;5248;47.374;8.486;2022-09-01T12:59:14;2.58;;;2.38;;
10403;SDS011;5248;47.374;8.486;2022-09-01T13:01:47;3.55;;;2.40;;
10403;SDS011;5248;47.374;8.486;2022-09-01T13:04:21;2.33;;;2.13;;
10403;SDS011;5248;47.374;8.486;2022-09-01T13:06:50;2.72;;;2.20;;
10403;SDS011;5248;47.374;8.486;2022-09-01T13:09:18;3.08;;;2.55;;
10403;SDS011;5248;47.374;8.486;2022-09-01T13:11:45;2.67;;;2.47;;
10403;SDS011;5248;47.374;8.486;2022-09-01T13:14:12;2.47;;;2.28;;
10403;SDS011;5248;47.374;8.486;2022-09-01T13:16:39;2.50;;;2.30;;
10403;SDS011;5248;47.374;8.486;2022-09-01T13:19:06;2.58;;;2.42;;
10403;SDS011;5248;47.374;8.486;2022-09-01T13:21:33;2.33;;;2.17;;
10403;SDS011;5248;47.374;8.486;2022-09-01T13:24:00;2.60;;;2.40;;
10403;SDS011;5248;47.374;8.486;2022-09-01T13:26:30;2.45;;;2.25;;
10403;SDS011;5248;47.374;8.486;2022-09-01T13:28:56;3.28;;;2.50;;
10403;SDS011;5248;47.374;8.486;2022-09-01T13:31:23;3.08;;;2.45;;
10403;SDS011;5248;47.374;8.486;2022-09-01T13:33:53;4.50;;;2.50;;
10403;SDS011;5248;47.374;8.486;2022-09-01T13:36:20;2.47;;;2.20;;
10403;SDS011;5248;47.374;8.486;2022-09-01T13:38:47;2.45;;;2.20;;
10403;SDS011;5248;47.374;8.486;2022-09-01T13:41:14;2.60;;;2.50;;
10403;SDS011;5248;47.374;8.486;2022-09-01T13:43:44;2.40;;;2.30;;
10403;SDS011;5248;47.374;8.486;2022-09-01T13:46:11;2.47;;;2.38;;
10403;SDS011;5248;47.374;8.486;2022-09-01T13:48:38;2.50;;;2.40;;
10403;SDS011;5248;47.374;8.486;2022-09-01T13:51:04;2.90;;;2.70;;
10403;SDS011;5248;47.374;8.486;2022-09-01T13:53:31;2.78;;;2.50;;
10403;SDS011;5248;47.374;8.486;2022-09-01T13:55:58;2.70;;;2.53;;
10403;SDS011;5248;47.374;8.486;2022-09-01T13:58:25;2.78;;;2.63;;
10403;SDS011;5248;47.374;8.486;2022-09-01T14:00:53;3.65;;;2.70;;
10403;SDS011;5248;47.374;8.486;2022-09-01T14:03:21;2.67;;;2.47;;
10403;SDS011;5248;47.374;8.486;2022-09-01T14:05:48;2.85;;;2.63;;
10403;SDS011;5248;47.374;8.486;2022-09-01T14:08:16;2.53;;;2.42;;
10403;SDS011;5248;47.374;8.486;2022-09-01T14:10:45;2.90;;;2.70;;
10403;SDS011;5248;47.374;8.486;2022-09-01T14:13:15;2.55;;;2.25;;
10403;SDS011;5248;47.374;8.486;2022-09-01T14:15:42;2.67;;;2.53;;
10403;SDS011;5248;47.374;8.486;2022-09-01T14:18:12;2.70;;;2.60;;
10403;SDS011;5248;47.374;8.486;2022-09-01T14:20:41;2.67;;;2.55;;
10403;SDS011;5248;47.374;8.486;2022-09-01T14:23:09;2.47;;;2.38;;
10403;SDS011;5248;47.374;8.486;2022-09-01T14:25:40;2.85;;;2.65;;
10403;SDS011;5248;47.374;8.486;2022-09-01T14:28:07;2.90;;;2.67;;
10403;SDS011;5248;47.374;8.486;2022-09-01T14:30:34;2.25;;;2.15;;
10403;SDS011;5248;47.374;8.486;2022-09-01T14:33:01;2.55;;;2.35;;
10403;SDS011;5248;47.374;8.486;2022-09-01T14:35:29;2.50;;;2.40;;
10403;SDS011;5248;47.374;8.486;2022-09-01T14:37:57;3.40;;;2.38;;
10403;SDS011;5248;47.374;8.486;2022-09-01T14:40:24;2.60;;;2.45;;
10403;SDS011;5248;47.374;8.486;2022-09-01T14:42:52;2.63;;;2.42;;
10403;SDS011;5248;47.374;8.486;2022-09-01T14:45:20;2.58;;;2.38;;
10403;SDS011;5248;47.374;8.486;2022-09-01T14:47:47;2.80;;;2.53;;
10403;SDS011;5248;47.374;8.486;2022-09-01T14:50:15;2.53;;;2.42;;
10403;SDS011;5248;47.374;8.486;2022-09-01T14:52:46;2.40;;;2.30;;
10403;SDS011;5248;47.374;8.486;2022-09-01T14:55:13;2.53;;;2.42;;
10403;SDS011;5248;47.374;8.486;2022-09-01T14:57:40;2.38;;;2.28;;
10403;SDS011;5248;47.374;8.486;2022-09-01T15:47:13;2.30;;;2.20;;
10403;SDS011;5248;47.374;8.486;2022-09-01T15:49:41;2.42;;;2.33;;
10403;SDS011;5248;47.374;8.486;2022-09-01T15:52:08;2.15;;;2.05;;
10403;SDS011;5248;47.374;8.486;2022-09-01T15:54:35;2.25;;;1.90;;
10403;SDS011;5248;47.374;8.486;2022-09-01T15:57:03;2.15;;;2.05;;
10403;SDS011;5248;47.374;8.486;2022-09-01T15:59:30;2.50;;;2.40;;
10403;SDS011;5248;47.374;8.486;2022-09-01T16:01:57;2.00;;;1.90;;